createdAt,value
2023-01-29T01:32:02.219Z,83.12
2023-01-29T01:34:32.002Z,82.52
2023-01-29T01:36:58.784Z,82.49
2023-01-29T01:39:25.296Z,82.38
2023-01-29T01:41:55.311Z,82.42
2023-01-29T01:44:57.709Z,82.40
2023-01-29T01:47:34.962Z,82.21
2023-01-29T01:50:13.345Z,82.04
2023-01-29T01:52:43.095Z,81.97
2023-01-29T01:55:10.458Z,81.89
2023-01-29T01:57:37.140Z,81.81
2023-01-29T02:00:09.557Z,81.90
2023-01-29T02:03:00.310Z,81.93
2023-01-29T02:05:51.432Z,82.03
2023-01-29T02:08:41.235Z,81.96
2023-01-29T02:11:07.838Z,81.88
2023-01-29T02:13:34.843Z,82.00
2023-01-29T02:16:02.527Z,81.97
2023-01-29T02:18:29.143Z,82.04
2023-01-29T02:20:58.637Z,81.94
2023-01-29T02:23:57.804Z,82.18
2023-01-29T02:26:32.479Z,82.28
2023-01-29T02:29:21.952Z,82.54
2023-01-29T02:32:25.169Z,82.62
2023-01-29T02:35:29.326Z,82.91
2023-01-29T02:38:12.269Z,82.81
2023-01-29T02:40:44.508Z,82.97
2023-01-29T02:43:48.684Z,83.00
2023-01-29T02:46:15.377Z,82.96
2023-01-29T02:48:54.563Z,82.96
2023-01-29T02:51:26.170Z,83.01
2023-01-29T02:53:56.013Z,82.98
2023-01-29T02:56:55.830Z,82.96
2023-01-29T03:00:02.684Z,83.09
2023-01-29T03:02:37.777Z,83.05
2023-01-29T03:05:07.933Z,82.92
2023-01-29T03:07:46.326Z,82.90
2023-01-29T03:10:36.130Z,82.86
2023-01-29T03:13:57.148Z,82.87
2023-01-29T03:16:47.148Z,82.85
2023-01-29T03:19:18.523Z,82.94
2023-01-29T03:21:54.574Z,82.95
2023-01-29T03:24:53.931Z,83.06
2023-01-29T03:27:44.337Z,83.17
2023-01-29T03:30:30.371Z,83.21
2023-01-29T03:33:07.124Z,83.33
2023-01-29T03:35:36.909Z,83.49
2023-01-29T03:38:11.926Z,83.67
2023-01-29T03:41:11.479Z,83.62
2023-01-29T03:44:01.513Z,83.77
2023-01-29T03:46:31.211Z,83.87
2023-01-29T03:49:09.318Z,83.95
2023-01-29T03:51:44.925Z,84.06
2023-01-29T03:54:29.215Z,83.98
2023-01-29T03:57:28.181Z,83.82
2023-01-29T04:00:14.582Z,84.00
2023-01-29T04:02:55.148Z,83.93
2023-01-29T04:05:24.136Z,83.92
2023-01-29T04:08:07.866Z,83.90
2023-01-29T04:10:35.536Z,83.93
2023-01-29T04:13:05.950Z,84.01
2023-01-29T04:15:43.363Z,83.96
2023-01-29T04:18:10.239Z,83.85
2023-01-29T04:20:48.120Z,83.98
2023-01-29T04:23:23.241Z,83.89
2023-01-29T04:26:13.096Z,83.91
2023-01-29T04:29:05.682Z,83.98
2023-01-29T04:31:34.205Z,84.15
2023-01-29T04:34:25.538Z,84.17
2023-01-29T04:37:07.475Z,84.45
2023-01-29T04:39:57.105Z,84.50
2023-01-29T04:42:36.605Z,84.61
2023-01-29T04:45:06.069Z,84.61
2023-01-29T04:47:44.070Z,84.65
2023-01-29T04:50:25.940Z,84.66
2023-01-29T04:53:08.872Z,84.95
2023-01-29T04:55:38.539Z,85.09
2023-01-29T04:58:18.943Z,85.04
2023-01-29T05:00:47.234Z,85.26
2023-01-29T05:03:14.484Z,85.34
2023-01-29T05:05:42.371Z,85.30
2023-01-29T05:08:09.177Z,85.31
2023-01-29T05:10:36.287Z,85.45
2023-01-29T05:13:03.796Z,85.61
2023-01-29T05:15:43.692Z,85.52
2023-01-29T05:18:10.345Z,85.76
2023-01-29T05:20:38.571Z,85.68
2023-01-29T05:23:09.725Z,85.66
2023-01-29T05:25:36.483Z,85.75
2023-01-29T05:28:17.995Z,85.69
2023-01-29T05:30:46.034Z,85.64
2023-01-29T05:33:16.385Z,85.58
2023-01-29T05:35:43.065Z,85.68
2023-01-29T05:38:09.771Z,85.69
2023-01-29T05:40:37.000Z,85.52
2023-01-29T05:43:13.524Z,85.77
2023-01-29T05:45:40.552Z,85.62
2023-01-29T05:48:07.050Z,85.67
2023-01-29T05:50:34.414Z,85.45
2023-01-29T05:53:01.219Z,85.38
2023-01-29T05:55:29.113Z,85.40
2023-01-29T05:57:55.786Z,85.33
2023-01-29T06:00:22.477Z,85.37
2023-01-29T06:02:49.202Z,85.21
2023-01-29T06:05:15.846Z,85.19
2023-01-29T06:07:44.727Z,85.31
2023-01-29T06:10:16.131Z,85.13
2023-01-29T06:12:44.164Z,85.08
2023-01-29T06:15:11.429Z,85.04
2023-01-29T06:17:39.612Z,85.07
2023-01-29T06:20:06.949Z,84.93
2023-01-29T06:22:33.563Z,84.95
2023-01-29T06:25:00.123Z,85.10
2023-01-29T06:27:26.705Z,85.11
2023-01-29T06:29:53.546Z,85.04
2023-01-29T06:32:20.874Z,85.11
2023-01-29T06:34:50.187Z,85.08
2023-01-29T06:37:18.216Z,85.14
2023-01-29T06:39:44.744Z,85.13
2023-01-29T06:42:11.327Z,85.04
2023-01-29T06:44:39.458Z,85.21
2023-01-29T06:47:06.230Z,85.25
2023-01-29T06:49:32.787Z,85.37
2023-01-29T06:52:01.139Z,85.43
2023-01-29T06:54:27.842Z,85.55
2023-01-29T06:56:55.605Z,85.61
2023-01-29T06:59:22.213Z,85.72
2023-01-29T07:01:48.941Z,85.79
2023-01-29T07:04:15.637Z,85.74
2023-01-29T07:06:42.263Z,85.64
2023-01-29T07:09:11.420Z,85.44
2023-01-29T07:11:41.648Z,85.46
2023-01-29T07:14:08.557Z,85.32
2023-01-29T07:16:35.343Z,85.43
2023-01-29T07:19:02.123Z,85.22
2023-01-29T07:21:28.917Z,85.15
2023-01-29T07:23:55.459Z,85.18
2023-01-29T07:26:22.248Z,85.29
2023-01-29T07:28:48.840Z,85.11
2023-01-29T07:31:15.556Z,85.08
2023-01-29T07:33:43.838Z,85.21
2023-01-29T07:36:10.661Z,85.10
2023-01-29T07:38:37.495Z,85.13
2023-01-29T07:41:08.484Z,84.88
2023-01-29T07:43:36.115Z,84.83
2023-01-29T07:46:03.335Z,85.04
2023-01-29T07:48:33.581Z,85.17
2023-01-29T07:51:00.176Z,84.84
2023-01-29T07:53:27.173Z,84.67
2023-01-29T07:55:53.902Z,84.64
2023-01-29T07:58:21.159Z,84.49
2023-01-29T08:00:47.730Z,84.29
2023-01-29T08:03:15.690Z,84.52
2023-01-29T08:05:43.462Z,84.11
2023-01-29T08:08:10.288Z,83.93
2023-01-29T08:10:38.374Z,83.89
2023-01-29T08:13:05.546Z,83.78
2023-01-29T08:15:35.998Z,83.64
2023-01-29T08:18:04.949Z,83.71
2023-01-29T08:20:31.495Z,83.51
2023-01-29T08:23:00.600Z,83.27
2023-01-29T08:25:27.809Z,83.36
2023-01-29T08:27:56.611Z,83.29
2023-01-29T08:30:24.908Z,84.01
2023-01-29T08:32:51.456Z,84.98
2023-01-29T08:35:18.207Z,85.01
2023-01-29T08:37:52.277Z,84.44
2023-01-29T10:17:59.516Z,85.44
2023-01-29T10:40:24.939Z,84.63
2023-01-29T10:58:03.073Z,83.67
2023-01-29T11:09:35.755Z,83.45
2023-01-29T11:17:54.833Z,83.49
2023-01-29T11:26:35.099Z,83.21
2023-01-29T11:39:40.130Z,82.69
2023-01-29T12:04:57.335Z,81.98
2023-01-29T12:26:39.485Z,81.89
2023-01-29T13:13:55.629Z,80.25
2023-01-29T14:22:52.371Z,78.56
2023-01-29T14:39:11.589Z,78.58
2023-01-29T15:15:59.312Z,78.27
2023-01-29T15:57:30.560Z,78.05
2023-01-29T18:31:05.021Z,72.25
2023-01-29T18:59:57.345Z,71.12
2023-01-29T19:12:37.089Z,71.18
2023-01-29T19:24:25.798Z,71.26
2023-01-29T19:27:57.965Z,70.92
2023-01-29T19:55:31.426Z,69.77
2023-01-29T19:59:11.100Z,69.75
2023-01-29T20:14:27.212Z,68.97
2023-01-29T20:26:18.983Z,68.44
2023-01-29T20:38:31.409Z,67.60
2023-01-29T20:50:25.864Z,66.87
2023-01-29T21:14:45.308Z,66.03
2023-01-29T21:26:40.897Z,64.98
2023-01-29T21:38:36.338Z,64.19
2023-01-29T21:50:26.466Z,64.08
2023-01-29T21:54:35.456Z,63.90
